Time;durP1;ratioP1;P1;durP2;ratioP2;P2;SDS_P1;SDS_P2;PMS_P1;PMS_P2;Temp;Humidity;BMP_temperature;BMP_pressure;BME280_temperature;BME280_humidity;BME280_pressure;Samples;Min_cycle;Max_cycle;Signal;HPM_P1;HPM_P2
2021/07/06 00:00:20;;;;;;;5.63;3.67;;;;;;;20.28;57.15;93560.28;5050755;28;20454;-71
2021/07/06 00:02:49;;;;;;;7.20;4.03;;;;;;;20.28;57.54;93559.50;5050720;28;20056;-71
2021/07/06 00:05:14;;;;;;;6.82;3.97;;;;;;;20.19;57.61;93563.34;5050771;28;20512;-71
2021/07/06 00:07:39;;;;;;;6.57;4.20;;;;;;;20.22;58.14;93565.28;5052010;28;20024;-71
2021/07/06 00:10:07;;;;;;;6.63;3.95;;;;;;;20.11;57.44;93555.56;5052064;28;20025;-71
2021/07/06 00:12:32;;;;;;;6.68;4.53;;;;;;;20.15;57.35;93559.84;5052247;28;20060;-71
2021/07/06 00:14:58;;;;;;;6.72;4.22;;;;;;;20.13;57.12;93555.94;5060464;28;20064;-71
2021/07/06 00:17:23;;;;;;;7.68;4.88;;;;;;;20.14;56.80;93562.94;5050426;28;20033;-71
2021/07/06 00:19:49;;;;;;;5.10;4.30;;;;;;;20.18;56.69;93555.59;5052120;28;20025;-71
2021/07/06 00:22:15;;;;;;;7.32;4.15;;;;;;;20.16;57.16;93558.69;5051629;28;20040;-71
2021/07/06 00:24:40;;;;;;;4.88;3.60;;;;;;;20.12;56.00;93560.59;5051965;28;20112;-71
2021/07/06 00:27:06;;;;;;;5.72;4.07;;;;;;;20.12;56.54;93559.84;5051707;28;20119;-71
2021/07/06 00:29:33;;;;;;;6.70;4.25;;;;;;;20.09;55.95;93569.50;5062499;28;20021;-71
2021/07/06 00:31:58;;;;;;;6.07;3.85;;;;;;;20.05;56.65;93576.81;5070364;28;20027;-71
2021/07/06 00:34:24;;;;;;;6.00;4.45;;;;;;;20.02;56.68;93569.44;5070008;28;20036;-71
2021/07/06 00:36:49;;;;;;;6.68;3.85;;;;;;;20.03;56.84;93574.47;5071588;28;20463;-71
2021/07/06 00:39:15;;;;;;;7.15;4.32;;;;;;;20.04;56.41;93567.91;5071038;28;20056;-71
2021/07/06 00:41:40;;;;;;;7.43;4.07;;;;;;;20.01;56.42;93571.38;5071439;28;20400;-71
2021/07/06 00:44:13;;;;;;;12.45;4.15;;;;;;;20.00;56.73;93569.81;5071544;28;20337;-71
2021/07/06 00:46:38;;;;;;;7.63;4.18;;;;;;;20.00;56.38;93571.75;5071283;28;20025;-71
2021/07/06 00:49:04;;;;;;;8.13;4.68;;;;;;;20.00;56.59;93574.47;5071272;28;20042;-72
2021/07/06 00:51:29;;;;;;;7.63;3.72;;;;;;;19.97;56.74;93580.66;5071076;28;20454;-71
2021/07/06 00:53:54;;;;;;;5.45;3.72;;;;;;;20.00;56.76;93586.03;5056086;28;20389;-71
2021/07/06 00:56:20;;;;;;;5.50;3.80;;;;;;;19.97;56.66;93589.53;5066997;28;20029;-71
2021/07/06 00:58:47;;;;;;;7.43;3.72;;;;;;;19.96;57.03;93585.25;5069678;28;20515;-71
2021/07/06 01:01:14;;;;;;;6.32;4.18;;;;;;;19.99;56.98;93587.22;5070754;28;20505;-71
2021/07/06 01:03:39;;;;;;;10.07;4.28;;;;;;;20.01;57.12;93589.56;5069517;28;20020;-71
2021/07/06 01:06:05;;;;;;;8.30;3.72;;;;;;;20.06;57.19;93578.34;5071183;28;20020;-71
2021/07/06 01:08:30;;;;;;;8.55;4.55;;;;;;;20.02;56.84;93578.31;5069231;28;20535;-71
2021/07/06 01:10:57;;;;;;;6.95;4.78;;;;;;;20.02;56.84;93582.97;5069695;28;20104;-71
2021/07/06 01:13:23;;;;;;;5.35;4.22;;;;;;;20.03;56.57;93581.81;5069265;28;20031;-71
2021/07/06 01:15:48;;;;;;;6.43;4.13;;;;;;;20.05;56.92;93587.63;5070651;28;20032;-71
2021/07/06 01:18:15;;;;;;;10.52;5.35;;;;;;;20.05;56.08;93598.47;5071103;28;20028;-71
2021/07/06 01:20:47;;;;;;;12.73;4.55;;;;;;;20.08;56.26;93600.38;5069349;28;20032;-71
2021/07/06 01:23:13;;;;;;;7.20;4.80;;;;;;;20.07;56.10;93587.22;5070719;28;20032;-71
2021/07/06 01:25:40;;;;;;;6.20;4.57;;;;;;;20.08;56.41;93599.63;5067610;28;20051;-71
2021/07/06 01:28:06;;;;;;;6.70;3.90;;;;;;;20.07;55.88;93593.44;5070572;28;20042;-71
2021/07/06 01:30:32;;;;;;;6.25;4.47;;;;;;;20.07;56.12;93589.94;5069034;28;20395;-71
2021/07/06 01:32:59;;;;;;;6.57;4.45;;;;;;;20.01;56.43;93597.66;5066694;28;20446;-71
2021/07/06 01:35:24;;;;;;;7.63;4.05;;;;;;;20.00;55.93;93580.63;5050781;28;20036;-71
2021/07/06 01:37:55;;;;;;;8.23;4.28;;;;;;;20.03;55.49;93595.34;5068809;28;20040;-71
2021/07/06 01:40:23;;;;;;;10.93;4.65;;;;;;;20.01;56.23;93593.03;5062616;28;20456;-71
2021/07/06 01:42:49;;;;;;;7.88;4.65;;;;;;;19.98;56.16;93585.66;5048191;28;20057;-71
2021/07/06 01:45:20;;;;;;;16.45;5.85;;;;;;;19.92;56.37;93581.00;5065322;28;20036;-71
2021/07/06 01:47:48;;;;;;;11.93;4.72;;;;;;;19.90;55.99;93583.28;5068528;28;20119;-71
2021/07/06 01:50:26;;;;;;;15.50;5.07;;;;;;;19.87;56.28;93589.47;5068919;28;20444;-71
2021/07/06 01:52:54;;;;;;;7.13;4.55;;;;;;;19.86;56.14;93585.97;5069619;28;20084;-70
2021/07/06 01:55:26;;;;;;;6.93;4.53;;;;;;;19.92;56.28;93589.09;5055018;28;20020;-71
2021/07/06 01:57:53;;;;;;;8.10;5.20;;;;;;;19.90;56.25;93591.41;5059565;28;20085;-71
2021/07/06 02:00:20;;;;;;;14.15;4.95;;;;;;;19.94;56.34;93584.09;5070152;28;20061;-71
2021/07/06 02:02:47;;;;;;;8.95;4.90;;;;;;;19.88;56.11;93596.44;5069971;28;20487;-71
2021/07/06 02:05:18;;;;;;;9.93;4.78;;;;;;;19.92;56.15;93583.69;5070165;28;20020;-71
2021/07/06 02:07:45;;;;;;;7.33;5.23;;;;;;;19.94;56.66;93598.38;5069914;28;20032;-71
2021/07/06 02:10:12;;;;;;;6.28;4.70;;;;;;;19.89;55.79;93589.88;5069984;28;20081;-71
2021/07/06 02:12:39;;;;;;;9.88;5.00;;;;;;;19.94;56.26;93589.50;5069765;28;20025;-71
2021/07/06 02:15:06;;;;;;;9.93;4.90;;;;;;;19.89;56.42;93584.47;5066279;28;20111;-71
2021/07/06 02:17:31;;;;;;;9.25;5.28;;;;;;;19.87;56.21;93597.59;5049948;28;20025;-71
2021/07/06 02:19:57;;;;;;;7.60;5.05;;;;;;;19.89;56.18;93589.88;5050037;28;20047;-71
2021/07/06 02:22:22;;;;;;;12.05;5.20;;;;;;;19.84;56.34;93599.91;5054132;28;20166;-71
2021/07/06 02:24:48;;;;;;;7.43;4.70;;;;;;;19.83;56.16;93597.56;5069754;28;20036;-71
2021/07/06 02:27:13;;;;;;;13.40;4.60;;;;;;;19.81;56.40;93599.88;5069731;28;20032;-71
2021/07/06 02:29:39;;;;;;;8.32;4.97;;;;;;;19.79;56.50;93604.88;5069896;28;20020;-71
2021/07/06 02:32:05;;;;;;;8.50;4.97;;;;;;;19.74;56.69;93595.22;5051522;28;20091;-71
2021/07/06 02:34:30;;;;;;;5.75;4.72;;;;;;;19.69;56.52;93597.44;5048302;28;20029;-71
2021/07/06 02:36:56;;;;;;;8.38;4.68;;;;;;;19.69;56.58;93595.50;5048183;28;20112;-71
2021/07/06 02:39:21;;;;;;;11.00;5.00;;;;;;;19.65;56.59;93594.72;5049390;28;20048;-71
2021/07/06 02:41:48;;;;;;;9.45;5.57;;;;;;;19.64;56.43;93593.16;5048357;28;20103;-71
2021/07/06 02:44:13;;;;;;;12.20;4.93;;;;;;;19.65;56.30;93592.78;5064539;28;20658;-71
2021/07/06 02:46:38;;;;;;;9.82;5.10;;;;;;;19.68;56.52;93598.59;5049734;28;20088;-71
2021/07/06 02:49:04;;;;;;;7.85;4.80;;;;;;;19.66;56.21;93596.25;5066235;28;20115;-71
2021/07/06 02:51:29;;;;;;;10.50;5.13;;;;;;;19.65;56.30;93597.44;5050640;28;20059;-71
2021/07/06 02:53:54;;;;;;;7.07;5.10;;;;;;;19.66;56.22;93607.06;5049393;28;20492;-72
2021/07/06 02:56:20;;;;;;;15.00;4.80;;;;;;;19.64;55.85;93602.06;5062992;28;20028;-71
2021/07/06 02:58:45;;;;;;;10.68;4.88;;;;;;;19.62;56.46;93604.38;5073581;28;20020;-71
2021/07/06 03:01:11;;;;;;;8.90;4.75;;;;;;;19.58;56.49;93613.59;5073230;28;20036;-71
2021/07/06 03:03:36;;;;;;;9.05;4.70;;;;;;;19.55;56.56;93614.34;5073426;28;20016;-72
2021/07/06 03:06:02;;;;;;;11.93;5.13;;;;;;;19.58;56.61;93613.59;5071845;28;20550;-71
2021/07/06 03:08:30;;;;;;;10.98;4.70;;;;;;;19.60;56.55;93609.38;5071381;28;20100;-71
2021/07/06 03:10:56;;;;;;;8.55;5.25;;;;;;;19.59;57.01;93615.16;5073145;28;20024;-71
2021/07/06 03:13:22;;;;;;;14.13;5.22;;;;;;;19.63;56.68;93626.75;5072741;28;20029;-72
2021/07/06 03:15:47;;;;;;;9.43;5.28;;;;;;;19.69;56.48;93619.84;5071792;28;20039;-72
2021/07/06 03:18:12;;;;;;;14.43;6.18;;;;;;;19.71;56.70;93622.97;5073005;28;20032;-71
2021/07/06 03:20:38;;;;;;;14.60;5.88;;;;;;;19.68;56.70;93629.09;5071583;28;20495;-71
2021/07/06 03:23:04;;;;;;;10.00;6.03;;;;;;;19.70;56.57;93632.22;5073026;28;20866;-71
2021/07/06 03:25:31;;;;;;;11.25;5.25;;;;;;;19.74;56.50;93643.06;5072479;28;20020;-71
2021/07/06 03:27:57;;;;;;;9.00;5.70;;;;;;;19.74;56.57;93649.28;5073035;28;20036;-71
2021/07/06 03:30:26;;;;;;;14.02;5.75;;;;;;;19.81;56.63;93643.91;5052953;28;20027;-71
2021/07/06 03:32:53;;;;;;;11.32;5.63;;;;;;;19.77;56.81;93645.81;5052845;28;20036;-72
2021/07/06 03:35:19;;;;;;;13.88;5.53;;;;;;;19.79;57.08;93646.22;5052778;28;20476;-72
2021/07/06 03:37:45;;;;;;;11.27;5.43;;;;;;;19.83;56.84;93641.59;5052296;28;20040;-72
2021/07/06 03:40:11;;;;;;;9.40;5.90;;;;;;;19.83;57.02;93655.13;5052754;28;20039;-71
2021/07/06 03:42:37;;;;;;;9.52;5.20;;;;;;;19.84;57.51;93639.66;5052002;28;20127;-71
2021/07/06 03:45:06;;;;;;;10.10;5.25;;;;;;;19.84;56.66;93645.88;5052740;28;20029;-71
2021/07/06 03:47:31;;;;;;;11.68;5.72;;;;;;;19.86;56.68;93655.53;5052354;28;20435;-71
2021/07/06 03:49:56;;;;;;;6.75;5.18;;;;;;;19.82;57.60;93660.91;5056535;28;20025;-71
2021/07/06 03:52:22;;;;;;;11.40;5.57;;;;;;;19.81;57.08;93659.38;5072351;28;20511;-71
2021/07/06 03:54:47;;;;;;;9.70;5.88;;;;;;;19.81;57.00;93654.72;5071054;28;20033;-71
2021/07/06 03:57:13;;;;;;;6.68;4.85;;;;;;;19.86;56.84;93666.34;5072546;28;20028;-71
2021/07/06 03:59:39;;;;;;;13.93;5.90;;;;;;;19.89;56.79;93660.19;5062841;28;20020;-71
2021/07/06 04:02:05;;;;;;;7.55;5.25;;;;;;;19.90;56.96;93661.72;5052401;28;20473;-71
2021/07/06 04:04:31;;;;;;;11.95;5.40;;;;;;;19.94;57.18;93663.28;5068641;28;20116;-71
2021/07/06 04:06:57;;;;;;;10.95;5.32;;;;;;;20.02;57.21;93664.88;5071755;28;20479;-71
2021/07/06 04:09:22;;;;;;;9.70;5.03;;;;;;;20.08;56.70;93665.31;5070877;28;20035;-71
2021/07/06 04:11:47;;;;;;;11.98;5.22;;;;;;;20.08;56.62;93662.63;5062213;28;20102;-71
2021/07/06 04:14:13;;;;;;;13.93;5.15;;;;;;;20.15;56.42;93678.91;5046635;28;20032;-71
2021/07/06 04:16:39;;;;;;;7.78;5.45;;;;;;;20.14;56.50;93679.28;5060055;28;20033;-72
2021/07/06 04:19:06;;;;;;;6.55;4.47;;;;;;;20.13;56.20;93675.78;5071646;28;20028;-71
2021/07/06 04:21:33;;;;;;;9.88;5.53;;;;;;;20.17;56.15;93681.19;5071960;28;20541;-71
2021/07/06 04:23:59;;;;;;;9.35;5.32;;;;;;;20.24;56.34;93684.72;5070229;28;20112;-71
2021/07/06 04:26:24;;;;;;;7.93;5.35;;;;;;;20.28;56.09;93681.28;5071909;28;20036;-71
2021/07/06 04:28:50;;;;;;;9.85;5.72;;;;;;;20.33;56.13;93691.72;5071306;28;20016;-71
2021/07/06 04:31:15;;;;;;;9.25;5.82;;;;;;;20.38;56.06;93696.81;5071612;28;20040;-71
2021/07/06 04:33:40;;;;;;;7.60;4.82;;;;;;;20.34;55.87;93690.59;5071419;28;20017;-71
2021/07/06 04:36:06;;;;;;;9.07;5.47;;;;;;;20.39;56.20;93704.56;5071128;28;20407;-71
2021/07/06 04:38:31;;;;;;;9.40;5.88;;;;;;;20.47;55.93;93704.56;5071283;28;20060;-71
2021/07/06 04:40:57;;;;;;;12.85;4.90;;;;;;;20.59;55.54;93717.81;5069723;28;20021;-71
2021/07/06 04:43:22;;;;;;;7.82;5.70;;;;;;;20.59;55.14;93715.88;5071361;28;20107;-71
2021/07/06 04:45:48;;;;;;;8.27;5.47;;;;;;;20.63;54.75;93729.44;5071488;28;20025;-72
2021/07/06 04:48:13;;;;;;;14.32;5.88;;;;;;;20.63;55.92;93734.84;5058933;28;20029;-71
2021/07/06 04:50:39;;;;;;;11.30;6.03;;;;;;;20.70;57.03;93734.09;5051453;28;20095;-71
2021/07/06 04:53:06;;;;;;;13.57;6.13;;;;;;;20.78;56.03;93719.44;5049871;28;20053;-72
2021/07/06 04:55:32;;;;;;;17.90;5.53;;;;;;;20.79;55.49;93729.13;5051403;28;20028;-71
2021/07/06 04:57:58;;;;;;;12.30;6.93;;;;;;;20.77;56.98;93728.72;5052860;28;20483;-71
2021/07/06 05:00:23;;;;;;;11.18;5.57;;;;;;;20.83;55.02;93735.31;5071090;28;20020;-72
2021/07/06 05:02:49;;;;;;;14.75;6.50;;;;;;;20.80;56.80;93727.94;5065680;28;20036;-72
2021/07/06 05:05:14;;;;;;;13.30;6.18;;;;;;;20.77;56.50;93734.91;5051488;28;20083;-71
2021/07/06 05:07:41;;;;;;;11.95;5.90;;;;;;;20.82;56.58;93736.47;5056145;28;20033;-71
2021/07/06 05:10:09;;;;;;;10.90;5.63;;;;;;;20.87;56.21;93738.81;5049374;28;20033;-71
2021/07/06 05:12:35;;;;;;;8.68;6.38;;;;;;;20.92;56.40;93741.16;5051054;28;20025;-71
2021/07/06 05:15:02;;;;;;;8.85;6.40;;;;;;;20.97;55.86;93748.91;5050916;28;20029;-72
2021/07/06 05:17:28;;;;;;;9.45;7.03;;;;;;;20.94;56.81;93748.91;5058606;28;20037;-73
2021/07/06 05:19:53;;;;;;;13.05;6.75;;;;;;;20.99;56.15;93749.31;5059973;28;20037;-72
2021/07/06 05:22:19;;;;;;;11.63;5.53;;;;;;;21.00;56.47;93748.16;5060592;28;20032;-72
2021/07/06 05:24:44;;;;;;;11.43;6.55;;;;;;;21.07;56.35;93749.34;5050887;28;20407;-72
2021/07/06 05:27:10;;;;;;;13.00;6.07;;;;;;;21.03;56.94;93747.41;5050527;28;20037;-71
2021/07/06 05:29:35;;;;;;;11.43;5.97;;;;;;;21.00;56.30;93747.38;5049388;28;20021;-72
2021/07/06 05:32:01;;;;;;;16.40;7.00;;;;;;;21.06;56.99;93753.22;5056176;28;20036;-72
2021/07/06 05:34:26;;;;;;;18.70;6.10;;;;;;;21.11;55.83;93755.56;5070271;28;20020;-72
2021/07/06 05:36:53;;;;;;;9.43;6.13;;;;;;;21.15;55.45;93764.47;5069352;28;20028;-72
2021/07/06 05:39:19;;;;;;;12.75;5.97;;;;;;;21.21;55.00;93760.25;5068005;28;20024;-72
2021/07/06 05:41:44;;;;;;;18.73;7.80;;;;;;;21.16;55.87;93766.00;5050191;28;20067;-72
2021/07/06 05:44:12;;;;;;;10.68;5.65;;;;;;;21.21;55.78;93757.53;5067303;28;20097;-72
2021/07/06 05:46:37;;;;;;;12.43;5.93;;;;;;;21.18;56.01;93755.56;5070170;28;20029;-71
2021/07/06 05:49:04;;;;;;;22.15;6.45;;;;;;;21.12;54.96;93755.16;5070092;28;20039;-71
2021/07/06 05:51:29;;;;;;;12.90;6.60;;;;;;;21.20;55.94;93756.72;5068316;28;20494;-73
2021/07/06 05:53:55;;;;;;;12.30;6.28;;;;;;;21.21;55.00;93752.88;5069801;28;20155;-73
2021/07/06 05:56:20;;;;;;;14.15;7.18;;;;;;;21.24;54.76;93760.22;5069777;28;20495;-73
2021/07/06 05:58:47;;;;;;;10.77;5.30;;;;;;;21.20;55.02;93761.38;5069504;28;20389;-73
2021/07/06 06:01:13;;;;;;;16.65;6.95;;;;;;;21.24;56.36;93762.16;5069767;28;20032;-73
2021/07/06 06:03:38;;;;;;;12.13;6.00;;;;;;;21.28;55.17;93764.91;5068979;28;20034;-73
2021/07/06 06:06:04;;;;;;;13.35;5.78;;;;;;;21.28;55.38;93759.47;5069019;28;20039;-73
2021/07/06 06:08:30;;;;;;;8.38;6.28;;;;;;;21.37;55.63;93763.38;5069296;28;20054;-73
2021/07/06 06:10:55;;;;;;;9.25;6.05;;;;;;;21.47;54.54;93761.84;5068116;28;20028;-72
2021/07/06 06:13:20;;;;;;;7.78;5.38;;;;;;;21.41;54.72;93755.22;5058946;28;20025;-75
2021/07/06 06:15:46;;;;;;;11.70;5.97;;;;;;;21.49;53.84;93762.25;5048137;28;20392;-75
2021/07/06 06:18:11;;;;;;;9.43;5.97;;;;;;;21.49;54.73;93759.53;5048205;28;20151;-74
2021/07/06 06:20:37;;;;;;;18.23;6.30;;;;;;;21.64;54.94;93763.06;5049565;28;20052;-74
2021/07/06 06:23:04;;;;;;;9.63;5.43;;;;;;;21.71;54.67;93760.34;5048492;28;20072;-73
2021/07/06 06:25:30;;;;;;;14.00;6.15;;;;;;;21.79;54.20;93759.19;5049997;28;20032;-73
2021/07/06 06:27:55;;;;;;;10.57;6.05;;;;;;;21.78;55.13;93749.50;5048598;28;20163;-73
2021/07/06 06:30:21;;;;;;;12.93;6.57;;;;;;;21.83;54.51;93754.53;5051373;28;20021;-72
2021/07/06 06:32:46;;;;;;;13.77;6.88;;;;;;;21.86;54.44;93755.72;5051925;28;20031;-73
2021/07/06 06:35:12;;;;;;;9.43;6.05;;;;;;;21.83;53.80;93751.81;5053510;28;20162;-73
2021/07/06 06:37:38;;;;;;;14.32;6.30;;;;;;;21.86;53.57;93763.06;5053376;28;20039;-74
2021/07/06 06:40:06;;;;;;;19.30;5.68;;;;;;;21.93;52.09;93753.00;5053435;28;20476;-73
2021/07/06 06:42:32;;;;;;;9.05;5.95;;;;;;;21.86;54.32;93750.31;5052461;28;20073;-74
2021/07/06 06:44:57;;;;;;;8.10;5.55;;;;;;;21.99;52.58;93758.81;5052215;28;20067;-74
2021/07/06 06:47:23;;;;;;;10.25;5.45;;;;;;;21.99;52.45;93766.97;5053611;28;20448;-73
2021/07/06 06:49:48;;;;;;;12.32;6.63;;;;;;;22.08;52.28;93753.75;5053398;28;20012;-74
2021/07/06 06:52:13;;;;;;;10.27;6.30;;;;;;;22.09;52.97;93747.19;5053304;28;20025;-74
2021/07/06 06:54:39;;;;;;;9.23;6.32;;;;;;;22.15;53.10;93742.16;5061585;28;20074;-74
2021/07/06 06:57:05;;;;;;;7.72;5.65;;;;;;;22.13;52.03;93753.38;5060888;28;20032;-74
2021/07/06 06:59:30;;;;;;;8.82;5.97;;;;;;;22.19;53.86;93742.91;5071800;28;20438;-75
2021/07/06 07:04:40;;;;;;;8.52;6.35;;;;;;;22.47;52.09;93752.19;5073842;28;20036;-74
2021/07/06 07:07:05;;;;;;;10.35;6.22;;;;;;;22.54;53.17;93752.19;5073379;28;20021;-72
2021/07/06 07:09:31;;;;;;;12.40;6.45;;;;;;;22.66;52.38;93751.00;5073385;28;20028;-73
2021/07/06 07:11:56;;;;;;;9.88;5.40;;;;;;;22.56;52.67;93744.44;5073900;28;20024;-73
2021/07/06 07:14:21;;;;;;;8.60;5.40;;;;;;;22.60;50.83;93750.63;5072865;28;20024;-73
2021/07/06 07:16:48;;;;;;;13.25;5.13;;;;;;;22.67;49.53;93752.53;5073293;28;20028;-73
2021/07/06 07:19:13;;;;;;;9.38;4.95;;;;;;;22.60;49.70;93748.69;5072903;28;20028;-74
2021/07/06 07:21:39;;;;;;;6.80;5.22;;;;;;;22.67;50.99;93738.97;5067320;28;20024;-76
2021/07/06 07:24:04;;;;;;;14.80;5.40;;;;;;;22.78;49.56;93745.16;5067974;28;20085;-76
2021/07/06 07:26:30;;;;;;;9.85;5.35;;;;;;;22.84;48.82;93743.56;5070880;28;20032;-76
2021/07/06 07:28:56;;;;;;;12.43;5.78;;;;;;;22.84;50.07;93732.69;5060604;28;20029;-75
2021/07/06 07:31:22;;;;;;;14.32;5.28;;;;;;;22.96;48.76;93726.81;5057772;28;20017;-75
2021/07/06 07:33:47;;;;;;;8.52;4.78;;;;;;;23.07;49.16;93731.47;5068237;28;20039;-77
2021/07/06 07:36:13;;;;;;;6.00;4.35;;;;;;;23.08;47.68;93730.28;5060074;28;20077;-74
2021/07/06 07:38:38;;;;;;;7.60;4.25;;;;;;;23.25;47.84;93740.31;5066336;28;20381;-74
2021/07/06 07:41:03;;;;;;;13.35;4.80;;;;;;;23.29;46.88;93743.00;5064568;28;20111;-74
2021/07/06 07:43:29;;;;;;;7.00;4.75;;;;;;;23.39;46.86;93737.50;5056184;28;20029;-73
2021/07/06 07:45:55;;;;;;;8.82;4.20;;;;;;;23.53;45.60;93728.50;5066026;28;20028;-74
2021/07/06 07:48:21;;;;;;;10.43;4.78;;;;;;;23.59;46.04;93739.69;5057819;28;20024;-74
2021/07/06 07:50:47;;;;;;;6.18;4.68;;;;;;;23.67;44.92;93737.72;5055579;28;20557;-74
2021/07/06 07:53:13;;;;;;;6.63;4.20;;;;;;;23.74;44.74;93732.22;5060570;28;20111;-74
2021/07/06 07:55:38;;;;;;;7.97;4.45;;;;;;;23.88;44.15;93748.47;5066764;28;20412;-73
2021/07/06 07:58:04;;;;;;;10.00;4.45;;;;;;;23.92;43.90;93737.56;5059556;28;20029;-74
2021/07/06 08:00:29;;;;;;;12.88;4.30;;;;;;;24.04;46.01;93737.09;5066415;28;20024;-75
2021/07/06 08:02:55;;;;;;;21.65;4.78;;;;;;;24.16;44.95;93739.31;5066839;28;20021;-75
2021/07/06 08:05:20;;;;;;;6.05;4.10;;;;;;;24.21;45.03;93743.53;5059917;28;20021;-75
2021/07/06 08:07:46;;;;;;;12.57;4.20;;;;;;;24.22;43.69;93751.31;5065421;28;20031;-75
2021/07/06 08:10:12;;;;;;;12.77;3.90;;;;;;;24.10;43.92;93740.13;5066412;28;20027;-76
2021/07/06 08:12:37;;;;;;;9.55;3.80;;;;;;;24.11;44.72;93741.69;5068233;28;20020;-73
2021/07/06 08:15:04;;;;;;;6.50;3.88;;;;;;;24.16;44.33;93747.47;5057072;28;21374;-75
2021/07/06 08:17:29;;;;;;;11.30;3.55;;;;;;;24.29;41.84;93755.91;5061852;28;20119;-74
2021/07/06 08:19:59;;;;;;;4.70;3.22;;;;;;;24.37;41.89;93738.34;5063101;28;20112;-76
2021/07/06 08:22:25;;;;;;;6.50;3.58;;;;;;;24.48;41.66;93740.94;5052188;28;20131;-74
2021/07/06 08:24:52;;;;;;;11.40;3.72;;;;;;;24.66;42.71;93750.91;5059678;28;20111;-75
2021/07/06 08:27:18;;;;;;;5.22;3.53;;;;;;;24.70;41.76;93746.22;5070542;28;20540;-77
2021/07/06 08:29:43;;;;;;;7.45;3.47;;;;;;;24.87;41.23;93747.94;5061444;28;20024;-76
2021/07/06 08:32:08;;;;;;;12.13;4.57;;;;;;;24.82;41.36;93753.84;5065354;28;20056;-77
2021/07/06 08:34:34;;;;;;;8.30;3.90;;;;;;;24.84;41.41;93754.22;5064701;28;20074;-76
2021/07/06 08:36:59;;;;;;;10.80;4.00;;;;;;;24.82;42.57;93745.69;5059486;28;20056;-78
2021/07/06 08:39:25;;;;;;;10.32;3.97;;;;;;;24.90;41.15;93749.88;5053578;28;20112;-76
2021/07/06 08:41:50;;;;;;;6.65;3.55;;;;;;;24.97;41.09;93746.28;5054373;28;20052;-75
2021/07/06 08:44:17;;;;;;;7.75;3.97;;;;;;;25.07;42.27;93742.66;5058703;28;20029;-74
2021/07/06 08:46:43;;;;;;;9.73;4.03;;;;;;;25.16;40.90;93750.34;5056688;28;20105;-76
2021/07/06 08:49:11;;;;;;;14.70;4.93;;;;;;;25.16;42.16;93755.81;5057796;28;20022;-76
2021/07/06 08:51:40;;;;;;;4.93;3.67;;;;;;;25.24;40.35;93751.84;5070025;28;20107;-77
2021/07/06 08:54:06;;;;;;;7.00;4.35;;;;;;;25.40;40.23;93751.22;5056938;28;20024;-77
2021/07/06 08:56:31;;;;;;;6.90;4.30;;;;;;;25.49;39.53;93753.47;5055997;28;20492;-76
2021/07/06 08:58:57;;;;;;;17.70;4.57;;;;;;;25.63;40.15;93753.25;5049328;28;20025;-75
2021/07/06 09:01:27;;;;;;;6.97;3.97;;;;;;;25.72;39.39;93752.72;5056502;28;20029;-75
2021/07/06 09:04:04;;;;;;;6.05;3.83;;;;;;;25.76;39.23;93753.44;5052227;28;20442;-75
2021/07/06 09:06:34;;;;;;;7.70;4.38;;;;;;;25.80;38.22;93760.41;5065105;28;20494;-75
2021/07/06 09:09:20;;;;;;;6.90;4.03;;;;;;;25.63;39.26;93761.44;5063656;28;20029;-74
2021/07/06 09:11:53;;;;;;;4.35;3.63;;;;;;;25.62;40.60;93762.63;5057817;28;20035;-71
2021/07/06 09:14:21;;;;;;;9.70;3.53;;;;;;;25.58;39.95;93750.97;5058274;28;20025;-74
2021/07/06 09:16:48;;;;;;;5.95;3.92;;;;;;;25.44;40.91;93760.13;5059332;28;20025;-73
2021/07/06 09:19:31;;;;;;;6.90;3.92;;;;;;;25.55;40.83;93749.84;5057541;28;20480;-72
2021/07/06 09:22:18;;;;;;;7.90;3.33;;;;;;;25.63;40.53;93754.03;5064837;28;20024;-72
2021/07/06 09:24:58;;;;;;;5.28;3.75;;;;;;;25.56;41.04;93761.53;5057448;28;20112;-71
2021/07/06 09:27:32;;;;;;;4.75;3.38;;;;;;;25.50;40.31;93763.94;5057613;28;20035;-74
2021/07/06 09:30:02;;;;;;;7.40;4.00;;;;;;;25.56;40.16;93761.53;5054649;28;20027;-74
2021/07/06 09:32:28;;;;;;;5.13;3.83;;;;;;;25.59;39.51;93756.03;5062678;28;20123;-74
2021/07/06 09:34:53;;;;;;;8.35;3.88;;;;;;;25.69;40.42;93754.34;5057070;28;20043;-77
2021/07/06 09:37:18;;;;;;;5.50;4.05;;;;;;;25.77;38.82;93744.09;5066744;28;20032;-76
2021/07/06 09:39:44;;;;;;;4.43;3.00;;;;;;;25.92;39.82;93747.41;5059852;28;20412;-77
2021/07/06 09:42:12;;;;;;;7.05;3.30;;;;;;;26.11;38.40;93741.22;5069618;28;20052;-76
2021/07/06 09:44:41;;;;;;;15.57;3.90;;;;;;;26.25;38.78;93751.16;5069627;28;20055;-76
2021/07/06 09:47:12;;;;;;;8.98;3.90;;;;;;;26.40;38.71;93746.22;5063114;28;20035;-77
2021/07/06 09:49:43;;;;;;;13.13;3.72;;;;;;;26.47;38.03;93750.78;5048207;28;20027;-76
2021/07/06 09:52:13;;;;;;;11.13;3.83;;;;;;;26.61;36.81;93750.56;5048413;28;20027;-77
2021/07/06 09:54:44;;;;;;;9.75;3.85;;;;;;;26.71;36.93;93748.81;5052779;28;20467;-77
2021/07/06 09:57:23;;;;;;;9.77;3.38;;;;;;;26.81;37.79;93748.63;5048607;28;20052;-78
2021/07/06 10:00:04;;;;;;;11.32;4.95;;;;;;;26.80;36.72;93749.03;5050636;28;20087;-77
2021/07/06 10:02:31;;;;;;;5.38;3.38;;;;;;;26.70;35.56;93742.56;5068320;28;20047;-78
2021/07/06 10:04:58;;;;;;;12.55;4.00;;;;;;;26.82;36.75;93746.66;5051978;28;20025;-78
2021/07/06 10:07:25;;;;;;;8.85;3.63;;;;;;;26.85;36.06;93759.50;5047907;28;20024;-76
2021/07/06 10:09:52;;;;;;;6.88;3.60;;;;;;;26.68;36.24;93747.69;5048777;28;20107;-75
2021/07/06 10:12:18;;;;;;;4.50;3.47;;;;;;;26.66;35.91;93743.81;5054743;28;20108;-76
2021/07/06 10:14:46;;;;;;;6.60;3.65;;;;;;;26.61;36.57;93740.38;5055166;28;20043;-77
2021/07/06 10:17:12;;;;;;;8.60;3.85;;;;;;;26.70;36.67;93736.34;5069334;28;20099;-78
2021/07/06 10:19:45;;;;;;;6.38;3.47;;;;;;;26.71;36.09;93737.88;5049880;28;20087;-77
2021/07/06 10:22:13;;;;;;;5.65;3.50;;;;;;;26.72;34.29;93733.94;5048993;28;20116;-81
2021/07/06 10:24:41;;;;;;;5.68;3.47;;;;;;;26.69;35.03;93730.09;5049083;28;20096;-77
2021/07/06 10:27:14;;;;;;;7.30;3.38;;;;;;;26.81;34.98;93736.91;5047638;28;20063;-77
2021/07/06 10:29:41;;;;;;;5.18;3.47;;;;;;;26.91;33.90;93737.88;5054294;28;20054;-76
2021/07/06 10:32:06;;;;;;;7.20;2.92;;;;;;;27.04;33.92;93727.09;5068054;28;20028;-77
2021/07/06 10:34:42;;;;;;;7.72;4.13;;;;;;;27.14;34.95;93748.00;5069290;28;20043;-77
2021/07/06 10:37:40;;;;;;;5.47;3.33;;;;;;;27.13;34.14;93741.75;5057992;28;20032;-76
2021/07/06 10:40:12;;;;;;;10.10;4.00;;;;;;;27.16;34.13;93731.91;5019425;28;20458;-73
2021/07/06 10:42:39;;;;;;;7.10;3.47;;;;;;;27.17;34.29;93733.44;5047032;28;20512;-76
2021/07/06 10:45:32;;;;;;;7.20;3.85;;;;;;;27.30;35.80;93731.66;5053448;28;20032;-77
2021/07/06 10:47:58;;;;;;;6.10;3.53;;;;;;;27.46;35.32;93735.59;5068133;28;20035;-77
2021/07/06 10:50:23;;;;;;;8.68;3.78;;;;;;;27.58;33.26;93726.75;5068714;28;20025;-78
2021/07/06 10:53:14;;;;;;;8.70;3.30;;;;;;;27.58;32.57;93721.28;5067822;28;20029;-77
2021/07/06 10:55:43;;;;;;;9.80;3.40;;;;;;;27.55;33.26;93724.88;5049644;28;20484;-77
2021/07/06 10:58:08;;;;;;;13.55;3.35;;;;;;;27.54;33.90;93720.56;5063320;28;20561;-76
2021/07/06 11:00:41;;;;;;;11.15;3.47;;;;;;;27.63;33.84;93717.28;5054112;28;20060;-77
2021/07/06 11:03:17;;;;;;;5.97;2.97;;;;;;;27.69;32.16;93721.81;5063873;28;20032;-77
2021/07/06 11:05:42;;;;;;;4.50;3.00;;;;;;;27.82;32.85;93713.66;5049754;28;20037;-77
2021/07/06 11:08:08;;;;;;;10.68;3.22;;;;;;;27.85;32.63;93714.81;5049867;28;20021;-77
2021/07/06 11:10:37;;;;;;;9.95;2.97;;;;;;;27.92;33.15;93720.13;5049524;28;20476;-76
2021/07/06 11:13:15;;;;;;;11.15;3.30;;;;;;;27.97;32.79;93720.41;5066985;28;20048;-77
2021/07/06 11:15:40;;;;;;;4.65;3.40;;;;;;;28.10;32.74;93716.97;5069417;28;20545;-78
2021/07/06 11:18:10;;;;;;;10.30;3.30;;;;;;;28.24;31.60;93713.09;5072563;28;20059;-79
2021/07/06 11:20:42;;;;;;;4.68;2.88;;;;;;;28.24;33.15;93711.13;5072360;28;20115;-76
2021/07/06 11:23:28;;;;;;;7.50;2.78;;;;;;;28.25;33.89;93711.88;5072307;28;20038;-76
2021/07/06 11:26:01;;;;;;;5.45;3.17;;;;;;;28.13;34.53;93708.66;5054054;28;20031;-75
2021/07/06 11:28:27;;;;;;;6.25;3.25;;;;;;;28.26;34.11;93710.69;5052341;28;20186;-74
2021/07/06 11:30:54;;;;;;;4.93;3.50;;;;;;;28.50;34.90;93725.75;5058584;28;20048;-74